Time;durP1;ratioP1;P1;durP2;ratioP2;P2;SDS_P1;SDS_P2;PMS_P1;PMS_P2;Temp;Humidity;BMP_temperature;BMP_pressure;BME280_temperature;BME280_humidity;BME280_pressure;Samples;Min_cycle;Max_cycle;Signal;HPM_P1;HPM_P2
2023/04/29 00:01:14;;;;;;;53.50;30.88;;;;;;;;;;4986112;28;20031;-83
2023/04/29 00:03:41;;;;;;;47.63;31.52;;;;;;;;;;4984439;28;20031;-84
2023/04/29 00:06:07;;;;;;;52.00;33.63;;;;;;;;;;4985134;28;20031;-82
2023/04/29 00:08:33;;;;;;;50.83;27.80;;;;;;;;;;4967169;28;20573;-83
2023/04/29 00:10:59;;;;;;;49.85;31.85;;;;;;;;;;4964017;28;20039;-82
2023/04/29 00:13:25;;;;;;;52.97;35.28;;;;;;;;;;4979679;28;20019;-84
2023/04/29 00:15:51;;;;;;;45.72;29.95;;;;;;;;;;4977027;28;20023;-83
2023/04/29 00:18:18;;;;;;;58.33;34.95;;;;;;;;;;4976640;28;20051;-84
2023/04/29 00:20:44;;;;;;;45.17;28.85;;;;;;;;;;4955048;28;20026;-84
2023/04/29 00:23:10;;;;;;;44.80;29.17;;;;;;;;;;4968475;28;20042;-85
2023/04/29 00:25:37;;;;;;;54.47;35.45;;;;;;;;;;4971981;28;20417;-83
2023/04/29 00:28:04;;;;;;;49.45;32.25;;;;;;;;;;4982523;28;20054;-83
2023/04/29 00:30:34;;;;;;;44.10;27.88;;;;;;;;;;4983113;28;20083;-83
2023/04/29 00:33:00;;;;;;;;;;;;;;;;;;4981178;28;20050;-83
2023/04/29 00:35:26;;;;;;;42.72;26.80;;;;;;;;;;4981955;28;19906;-83
2023/04/29 00:37:52;;;;;;;51.28;30.63;;;;;;;;;;4983396;28;20103;-82
2023/04/29 00:40:18;;;;;;;54.47;33.47;;;;;;;;;;4950008;28;20064;-83
2023/04/29 00:42:44;;;;;;;43.42;29.75;;;;;;;;;;4957681;29;20516;-81
2023/04/29 00:45:10;;;;;;;37.80;24.77;;;;;;;;;;4945690;28;20035;-81
2023/04/29 00:47:36;;;;;;;54.55;35.45;;;;;;;;;;4985042;28;20015;-82
2023/04/29 00:50:05;;;;;;;40.13;23.40;;;;;;;;;;4987588;28;20035;-84
2023/04/29 00:52:31;;;;;;;47.33;30.33;;;;;;;;;;4984386;28;20046;-81
2023/04/29 00:54:58;;;;;;;45.50;29.52;;;;;;;;;;4983569;28;20038;-84
2023/04/29 00:57:27;;;;;;;29.67;18.75;;;;;;;;;;4977974;28;20035;-82
2023/04/29 00:59:54;;;;;;;45.80;28.67;;;;;;;;;;4981135;28;20031;-84
2023/04/29 01:02:24;;;;;;;46.97;30.17;;;;;;;;;;4982999;28;20030;-84
2023/04/29 01:04:51;;;;;;;;;;;;;;;;;;4986146;28;20066;-82
2023/04/29 01:07:27;;;;;;;40.03;24.20;;;;;;;;;;4984639;28;19906;-83
2023/04/29 01:10:12;;;;;;;46.67;29.30;;;;;;;;;;4969960;28;20102;-82
2023/04/29 01:13:00;;;;;;;46.08;29.23;;;;;;;;;;4982203;28;20023;-82
2023/04/29 01:15:32;;;;;;;42.28;28.17;;;;;;;;;;4950403;29;20034;-81
2023/04/29 01:18:07;;;;;;;38.35;24.98;;;;;;;;;;4979674;28;20030;-82
2023/04/29 01:20:34;;;;;;;37.70;24.55;;;;;;;;;;4951359;28;20027;-82
2023/04/29 01:23:00;;;;;;;50.75;31.48;;;;;;;;;;4980845;28;20034;-82
2023/04/29 01:25:26;;;;;;;45.60;28.10;;;;;;;;;;4982251;28;20023;-82
2023/04/29 01:27:57;;;;;;;42.97;27.77;;;;;;;;;;4976213;28;20051;-81
2023/04/29 01:30:38;;;;;;;47.50;29.95;;;;;;;;;;4961850;29;20043;-80
2023/04/29 01:33:07;;;;;;;35.97;21.63;;;;;;;;;;4977137;28;20079;-82
2023/04/29 01:35:43;;;;;;;42.58;26.30;;;;;;;;;;4985929;28;20050;-83
2023/04/29 01:38:09;;;;;;;44.15;29.15;;;;;;;;;;4986117;28;20031;-82
2023/04/29 01:40:44;;;;;;;40.80;26.27;;;;;;;;;;4987771;28;20036;-82
2023/04/29 01:43:11;;;;;;;40.65;24.85;;;;;;;;;;4988321;28;20046;-84
2023/04/29 01:45:43;;;;;;;41.70;27.27;;;;;;;;;;4970311;28;20031;-82
2023/04/29 01:48:10;;;;;;;44.75;27.08;;;;;;;;;;4986045;28;20019;-82
2023/04/29 01:50:43;;;;;;;45.97;28.65;;;;;;;;;;4971010;28;20031;-83
2023/04/29 01:53:11;;;;;;;35.40;24.33;;;;;;;;;;4988460;28;20030;-84
2023/04/29 01:55:38;;;;;;;31.17;20.55;;;;;;;;;;4983199;28;20019;-84
2023/04/29 01:58:13;;;;;;;29.98;19.33;;;;;;;;;;4988098;28;20038;-84
2023/04/29 02:00:41;;;;;;;34.20;22.40;;;;;;;;;;4968872;28;20034;-83
2023/04/29 02:03:07;;;;;;;45.80;28.60;;;;;;;;;;4978065;28;20117;-82
2023/04/29 02:05:34;;;;;;;40.13;24.33;;;;;;;;;;4965867;28;20544;-83
2023/04/29 02:08:00;;;;;;;34.45;23.50;;;;;;;;;;4982709;28;20091;-83
2023/04/29 02:10:27;;;;;;;31.27;17.38;;;;;;;;;;4983068;28;20062;-83
2023/04/29 02:12:53;;;;;;;25.42;13.68;;;;;;;;;;4973888;28;20093;-84
2023/04/29 02:15:20;;;;;;;34.58;22.35;;;;;;;;;;4984769;28;20026;-84
2023/04/29 02:17:46;;;;;;;43.13;25.90;;;;;;;;;;4968883;28;20098;-83
2023/04/29 02:20:22;;;;;;;25.83;15.52;;;;;;;;;;4984611;28;20082;-81
2023/04/29 02:22:48;;;;;;;37.45;23.75;;;;;;;;;;4975993;28;20102;-83
2023/04/29 02:25:14;;;;;;;31.63;21.27;;;;;;;;;;4980125;28;20019;-82
2023/04/29 02:27:40;;;;;;;34.20;21.27;;;;;;;;;;4985011;28;20473;-84
2023/04/29 02:30:07;;;;;;;30.80;20.15;;;;;;;;;;4980987;28;20039;-84
2023/04/29 02:32:33;;;;;;;33.92;22.70;;;;;;;;;;4962546;28;20051;-83
2023/04/29 02:34:59;;;;;;;33.47;21.15;;;;;;;;;;4979177;28;20061;-83
2023/04/29 02:37:26;;;;;;;30.55;21.17;;;;;;;;;;4958813;28;20035;-85
2023/04/29 02:39:52;;;;;;;31.20;20.30;;;;;;;;;;4977641;28;20035;-85
2023/04/29 02:42:19;;;;;;;28.77;17.45;;;;;;;;;;4977053;28;20078;-83
2023/04/29 02:44:45;;;;;;;31.42;21.40;;;;;;;;;;4959302;28;20130;-83
2023/04/29 02:47:11;;;;;;;22.92;12.90;;;;;;;;;;4958787;28;20074;-83
2023/04/29 02:49:37;;;;;;;33.22;21.25;;;;;;;;;;4974285;28;20039;-82
2023/04/29 02:52:03;;;;;;;39.88;24.70;;;;;;;;;;4960641;28;20066;-81
2023/04/29 02:54:30;;;;;;;34.67;21.40;;;;;;;;;;4979606;28;20123;-81
2023/04/29 02:56:57;;;;;;;26.27;17.23;;;;;;;;;;4979702;28;20027;-83
2023/04/29 02:59:24;;;;;;;30.83;18.42;;;;;;;;;;4980420;28;20118;-84
2023/04/29 03:01:53;;;;;;;37.90;24.13;;;;;;;;;;4978120;28;20039;-83
2023/04/29 03:04:19;;;;;;;30.15;19.27;;;;;;;;;;4963647;28;20389;-84
2023/04/29 03:06:45;;;;;;;31.98;20.55;;;;;;;;;;4979692;28;20461;-83
2023/04/29 03:09:13;;;;;;;29.08;18.20;;;;;;;;;;4979439;28;20080;-80
2023/04/29 03:11:39;;;;;;;24.23;15.95;;;;;;;;;;4942327;29;20466;-82
2023/04/29 03:14:06;;;;;;;36.90;23.55;;;;;;;;;;4976364;28;20038;-81
2023/04/29 03:16:33;;;;;;;37.17;24.73;;;;;;;;;;4959880;28;20026;-83
2023/04/29 03:18:59;;;;;;;31.85;20.48;;;;;;;;;;4975488;28;20109;-82
2023/04/29 03:21:26;;;;;;;34.22;22.63;;;;;;;;;;4976705;28;20521;-81
2023/04/29 03:23:52;;;;;;;27.40;16.85;;;;;;;;;;4975995;28;20035;-82
2023/04/29 03:26:18;;;;;;;31.58;19.70;;;;;;;;;;4966585;28;20408;-82
2023/04/29 03:28:44;;;;;;;33.08;21.40;;;;;;;;;;4975739;28;20460;-81
2023/04/29 03:31:11;;;;;;;29.13;16.95;;;;;;;;;;4975039;28;20066;-82
2023/04/29 03:33:37;;;;;;;21.90;14.02;;;;;;;;;;4975523;28;20058;-82
2023/04/29 03:36:04;;;;;;;30.88;16.65;;;;;;;;;;4976827;28;20035;-82
2023/04/29 03:38:30;;;;;;;24.08;13.77;;;;;;;;;;4967755;28;20114;-84
2023/04/29 03:40:56;;;;;;;27.27;17.40;;;;;;;;;;4977476;28;20062;-83
2023/04/29 03:43:22;;;;;;;34.17;20.20;;;;;;;;;;4977881;28;20027;-83
2023/04/29 03:45:48;;;;;;;27.35;18.02;;;;;;;;;;4977184;28;20057;-81
2023/04/29 03:48:14;;;;;;;29.63;18.00;;;;;;;;;;4974413;28;20031;-82
2023/04/29 03:50:41;;;;;;;40.83;24.77;;;;;;;;;;4975171;28;20146;-83
2023/04/29 03:53:07;;;;;;;33.28;22.70;;;;;;;;;;4975850;28;20129;-82
2023/04/29 03:55:33;;;;;;;41.15;23.08;;;;;;;;;;4975370;28;20027;-82
2023/04/29 03:57:59;;;;;;;33.25;22.98;;;;;;;;;;4975647;28;20031;-83
2023/04/29 04:00:25;;;;;;;37.20;25.08;;;;;;;;;;4973170;28;20118;-82
2023/04/29 04:02:52;;;;;;;30.20;18.83;;;;;;;;;;4966224;28;20145;-81
2023/04/29 04:05:19;;;;;;;29.27;19.63;;;;;;;;;;4975702;28;20031;-83
2023/04/29 04:07:46;;;;;;;25.70;16.35;;;;;;;;;;4958938;28;20181;-81
2023/04/29 04:10:11;;;;;;;25.63;15.90;;;;;;;;;;4977196;28;20035;-80
2023/04/29 04:12:37;;;;;;;23.75;15.63;;;;;;;;;;4959985;28;20597;-82
2023/04/29 04:15:04;;;;;;;33.35;20.35;;;;;;;;;;4967600;28;20038;-82
2023/04/29 04:17:30;;;;;;;33.10;22.10;;;;;;;;;;4962143;28;20359;-82
2023/04/29 04:19:57;;;;;;;31.40;19.45;;;;;;;;;;4976233;28;20030;-84
2023/04/29 04:22:24;;;;;;;31.35;20.27;;;;;;;;;;4959665;28;20031;-83
2023/04/29 04:24:54;;;;;;;23.55;15.15;;;;;;;;;;4967593;28;20461;-82
2023/04/29 04:27:20;;;;;;;39.58;23.77;;;;;;;;;;4976898;28;20027;-82
2023/04/29 04:29:46;;;;;;;36.78;23.00;;;;;;;;;;4976233;28;20038;-84
2023/04/29 04:32:12;;;;;;;23.98;16.13;;;;;;;;;;4976832;28;20145;-83
2023/04/29 04:34:38;;;;;;;25.45;15.35;;;;;;;;;;4959479;28;20561;-82
2023/04/29 04:37:05;;;;;;;30.60;18.23;;;;;;;;;;4958374;29;20062;-83
2023/04/29 04:39:31;;;;;;;26.35;18.38;;;;;;;;;;4970971;28;20027;-82
2023/04/29 04:41:57;;;;;;;27.90;18.55;;;;;;;;;;4975035;28;20555;-83
2023/04/29 04:44:24;;;;;;;27.40;17.08;;;;;;;;;;4974624;28;20042;-83
2023/04/29 04:46:51;;;;;;;24.83;15.15;;;;;;;;;;4947954;29;20035;-81
2023/04/29 04:49:17;;;;;;;24.27;16.55;;;;;;;;;;4964191;28;20035;-82
2023/04/29 04:51:44;;;;;;;17.38;11.07;;;;;;;;;;4974604;28;20050;-80
2023/04/29 04:54:11;;;;;;;19.92;11.32;;;;;;;;;;4975435;28;20026;-83
2023/04/29 04:56:36;;;;;;;20.33;12.50;;;;;;;;;;4974955;28;20030;-83
2023/04/29 04:59:03;;;;;;;29.02;18.58;;;;;;;;;;4956615;28;20121;-81
2023/04/29 05:01:29;;;;;;;26.80;17.10;;;;;;;;;;4973788;28;20087;-82
2023/04/29 05:03:56;;;;;;;14.60;6.97;;;;;;;;;;4958614;28;20469;-82
2023/04/29 05:06:22;;;;;;;28.75;15.82;;;;;;;;;;4957923;28;20173;-84
2023/04/29 05:08:48;;;;;;;22.95;17.80;;;;;;;;;;4958704;28;20070;-81
2023/04/29 05:11:18;;;;;;;14.75;9.13;;;;;;;;;;4973606;28;20106;-82
2023/04/29 05:13:44;;;;;;;23.15;17.30;;;;;;;;;;4957270;28;20027;-83
2023/04/29 05:16:10;;;;;;;20.70;13.93;;;;;;;;;;4975775;28;20078;-82
2023/04/29 05:18:36;;;;;;;23.75;17.52;;;;;;;;;;4974577;28;20077;-82
2023/04/29 05:21:02;;;;;;;20.73;14.02;;;;;;;;;;4975616;28;20051;-81
2023/04/29 05:23:28;;;;;;;26.85;18.90;;;;;;;;;;4962767;28;20054;-84
2023/04/29 05:25:55;;;;;;;24.05;17.17;;;;;;;;;;4972868;28;20449;-82
2023/04/29 05:28:21;;;;;;;23.08;15.75;;;;;;;;;;4973915;28;20038;-81
2023/04/29 05:30:50;;;;;;;22.73;15.00;;;;;;;;;;4972938;28;20512;-82
2023/04/29 05:33:16;;;;;;;22.67;15.85;;;;;;;;;;4956048;28;20051;-82
2023/04/29 05:35:42;;;;;;;18.23;12.73;;;;;;;;;;4963456;28;20507;-82
2023/04/29 05:38:08;;;;;;;28.70;19.85;;;;;;;;;;4953551;28;20157;-82
2023/04/29 05:40:34;;;;;;;26.15;18.52;;;;;;;;;;4973437;28;20023;-82
2023/04/29 05:43:00;;;;;;;23.75;15.10;;;;;;;;;;4968369;28;20034;-81
2023/04/29 05:45:26;;;;;;;27.05;17.85;;;;;;;;;;4973358;28;20489;-81
2023/04/29 05:47:52;;;;;;;19.17;10.68;;;;;;;;;;4967425;28;20023;-83
2023/04/29 05:50:18;;;;;;;21.75;14.65;;;;;;;;;;4978664;28;20047;-81
2023/04/29 05:52:44;;;;;;;24.08;15.85;;;;;;;;;;4955656;28;20019;-81
2023/04/29 05:55:10;;;;;;;27.75;18.88;;;;;;;;;;4973592;28;20022;-82
2023/04/29 05:57:36;;;;;;;13.35;8.15;;;;;;;;;;4973680;28;20034;-81
2023/04/29 06:00:02;;;;;;;13.20;6.45;;;;;;;;;;4955105;28;20471;-83
2023/04/29 06:02:28;;;;;;;20.77;12.00;;;;;;;;;;4971609;28;20031;-80
2023/04/29 06:04:54;;;;;;;18.45;12.60;;;;;;;;;;4973747;28;20073;-81
2023/04/29 06:07:21;;;;;;;27.95;18.48;;;;;;;;;;4973128;28;20062;-83
2023/04/29 06:09:47;;;;;;;16.40;8.02;;;;;;;;;;4969897;28;20034;-80
2023/04/29 06:12:13;;;;;;;21.27;11.90;;;;;;;;;;4963428;28;20029;-81
2023/04/29 06:14:39;;;;;;;24.48;17.15;;;;;;;;;;4973534;28;20493;-82
2023/04/29 06:17:05;;;;;;;25.30;17.20;;;;;;;;;;4956549;28;20079;-82
2023/04/29 06:19:32;;;;;;;27.73;19.20;;;;;;;;;;4957696;28;20106;-81
2023/04/29 06:21:58;;;;;;;29.77;20.88;;;;;;;;;;4972596;28;20081;-83
2023/04/29 06:24:24;;;;;;;25.85;19.25;;;;;;;;;;4954843;28;20061;-83
2023/04/29 06:26:50;;;;;;;25.98;17.55;;;;;;;;;;4966030;28;20027;-81
2023/04/29 06:29:17;;;;;;;27.63;19.15;;;;;;;;;;4974085;28;20023;-82
2023/04/29 06:31:45;;;;;;;20.48;13.38;;;;;;;;;;4956559;28;20528;-82
2023/04/29 06:34:14;;;;;;;21.48;12.80;;;;;;;;;;4968397;28;20043;-84
2023/04/29 06:36:40;;;;;;;22.92;15.25;;;;;;;;;;4973807;28;20033;-81
2023/04/29 06:39:06;;;;;;;25.98;18.63;;;;;;;;;;4972892;28;20134;-81
2023/04/29 06:41:33;;;;;;;26.58;18.02;;;;;;;;;;4974183;28;20046;-82
2023/04/29 06:43:59;;;;;;;21.40;12.75;;;;;;;;;;4974069;28;20038;-83
2023/04/29 06:46:26;;;;;;;17.58;9.80;;;;;;;;;;4973632;28;20086;-82
2023/04/29 06:48:52;;;;;;;27.42;18.13;;;;;;;;;;4954338;28;20038;-81
2023/04/29 06:51:19;;;;;;;17.88;11.48;;;;;;;;;;4973940;28;20050;-81
2023/04/29 06:53:46;;;;;;;24.65;16.10;;;;;;;;;;4969982;28;20031;-81
2023/04/29 06:56:12;;;;;;;24.17;16.80;;;;;;;;;;4970962;28;20115;-83
2023/04/29 06:58:38;;;;;;;25.60;18.17;;;;;;;;;;4970490;28;20111;-83
2023/04/29 07:01:06;;;;;;;25.70;17.90;;;;;;;;;;4972019;28;20114;-79
2023/04/29 07:03:32;;;;;;;25.48;18.73;;;;;;;;;;4968117;28;20035;-80
2023/04/29 07:05:58;;;;;;;23.40;16.85;;;;;;;;;;4970011;28;20062;-81
2023/04/29 07:08:24;;;;;;;23.98;17.13;;;;;;;;;;4953752;28;20043;-83
2023/04/29 07:10:54;;;;;;;23.88;15.80;;;;;;;;;;4966516;28;20424;-84
2023/04/29 07:13:20;;;;;;;22.77;14.43;;;;;;;;;;4967540;28;20054;-83
2023/04/29 07:15:46;;;;;;;21.50;14.43;;;;;;;;;;4964902;28;20039;-81
2023/04/29 07:18:12;;;;;;;21.73;16.98;;;;;;;;;;4955324;28;20031;-80
2023/04/29 07:20:38;;;;;;;22.85;14.25;;;;;;;;;;4963550;28;20023;-82
2023/04/29 07:23:04;;;;;;;23.70;16.80;;;;;;;;;;4962696;28;20032;-81
2023/04/29 07:25:31;;;;;;;20.15;12.50;;;;;;;;;;4969016;28;20034;-80
2023/04/29 07:27:57;;;;;;;22.77;15.73;;;;;;;;;;4960749;28;20607;-82
2023/04/29 07:30:23;;;;;;;15.45;7.88;;;;;;;;;;4972206;28;20071;-80
2023/04/29 07:32:49;;;;;;;16.20;10.55;;;;;;;;;;4965138;28;20035;-81
2023/04/29 07:35:16;;;;;;;14.52;8.90;;;;;;;;;;4941548;28;20494;-81
2023/04/29 07:37:44;;;;;;;22.00;13.98;;;;;;;;;;4973366;28;20037;-78
2023/04/29 07:40:11;;;;;;;22.35;11.77;;;;;;;;;;4955846;28;20074;-80
2023/04/29 07:42:38;;;;;;;16.85;12.55;;;;;;;;;;4965130;28;20381;-82
2023/04/29 07:45:04;;;;;;;22.30;13.73;;;;;;;;;;4976059;28;20086;-80
2023/04/29 07:47:30;;;;;;;19.80;13.10;;;;;;;;;;4966357;28;20027;-80
2023/04/29 07:49:56;;;;;;;19.77;11.52;;;;;;;;;;4962610;28;20045;-81
2023/04/29 07:52:24;;;;;;;23.30;12.40;;;;;;;;;;4966206;28;20507;-80
2023/04/29 07:54:50;;;;;;;16.33;10.23;;;;;;;;;;4975433;28;20045;-80
2023/04/29 07:57:16;;;;;;;14.10;8.38;;;;;;;;;;4975054;28;20016;-82
2023/04/29 07:59:42;;;;;;;22.58;12.40;;;;;;;;;;4957892;28;20086;-79
2023/04/29 08:02:08;;;;;;;19.75;12.55;;;;;;;;;;4952009;28;20027;-81
2023/04/29 08:04:34;;;;;;;12.38;6.07;;;;;;;;;;4972074;28;20038;-81
2023/04/29 08:07:01;;;;;;;16.30;9.50;;;;;;;;;;4967675;28;20078;-80
2023/04/29 08:09:28;;;;;;;11.82;7.57;;;;;;;;;;4964417;28;20105;-82
2023/04/29 08:11:57;;;;;;;19.88;12.70;;;;;;;;;;4966442;28;20481;-80
2023/04/29 08:14:24;;;;;;;24.38;13.57;;;;;;;;;;4973592;28;20034;-80
2023/04/29 08:16:50;;;;;;;17.30;12.02;;;;;;;;;;4955565;28;20027;-81
2023/04/29 08:19:16;;;;;;;17.70;12.43;;;;;;;;;;4957700;28;20453;-81
2023/04/29 08:21:42;;;;;;;12.23;8.32;;;;;;;;;;4956055;28;20030;-80
2023/04/29 08:24:08;;;;;;;19.15;10.60;;;;;;;;;;4968405;28;20023;-80
2023/04/29 08:26:34;;;;;;;12.80;7.15;;;;;;;;;;4964567;28;20088;-81
2023/04/29 08:29:00;;;;;;;15.05;10.88;;;;;;;;;;4959380;28;20167;-81
2023/04/29 08:31:27;;;;;;;13.82;9.35;;;;;;;;;;4969645;28;20031;-81
2023/04/29 08:33:53;;;;;;;16.50;10.93;;;;;;;;;;4967042;28;20074;-80
2023/04/29 08:36:19;;;;;;;14.18;9.68;;;;;;;;;;4968035;28;20058;-79
2023/04/29 08:38:47;;;;;;;16.00;9.27;;;;;;;;;;4970108;28;20681;-81
2023/04/29 08:41:15;;;;;;;11.95;5.75;;;;;;;;;;4971877;28;20366;-80
2023/04/29 08:43:41;;;;;;;10.48;5.85;;;;;;;;;;4967462;28;20039;-83
2023/04/29 08:46:07;;;;;;;13.90;8.15;;;;;;;;;;4956698;28;20755;-81
2023/04/29 08:48:34;;;;;;;15.52;10.77;;;;;;;;;;4969188;28;20085;-81
2023/04/29 08:51:01;;;;;;;15.05;9.68;;;;;;;;;;4971705;28;20030;-81
2023/04/29 08:53:27;;;;;;;20.80;11.88;;;;;;;;;;4969585;28;20039;-81
2023/04/29 08:55:54;;;;;;;13.70;9.45;;;;;;;;;;4971262;28;20038;-82
2023/04/29 08:58:20;;;;;;;14.48;9.57;;;;;;;;;;4953130;29;20473;-81
2023/04/29 09:00:47;;;;;;;7.18;4.78;;;;;;;;;;4971034;28;20023;-81
2023/04/29 09:03:19;;;;;;;16.13;10.40;;;;;;;;;;4952823;28;20929;-80
2023/04/29 09:05:47;;;;;;;12.15;7.47;;;;;;;;;;4958223;28;20035;-82
2023/04/29 09:08:13;;;;;;;13.55;8.15;;;;;;;;;;4964997;28;20041;-85
2023/04/29 09:10:41;;;;;;;9.52;5.15;;;;;;;;;;4961403;28;20065;-84
2023/04/29 09:13:07;;;;;;;11.15;6.70;;;;;;;;;;4973098;28;20433;-80
2023/04/29 09:15:39;;;;;;;11.55;6.38;;;;;;;;;;4952074;28;20037;-81
2023/04/29 09:18:05;;;;;;;13.88;8.40;;;;;;;;;;4967422;28;20118;-79
2023/04/29 09:20:31;;;;;;;10.38;7.55;;;;;;;;;;4971422;28;20069;-80
2023/04/29 09:22:58;;;;;;;9.85;4.03;;;;;;;;;;4970652;28;20031;-83
2023/04/29 09:25:25;;;;;;;10.35;5.90;;;;;;;;;;4944729;28;20031;-81
2023/04/29 09:27:51;;;;;;;13.13;8.45;;;;;;;;;;4969636;28;20027;-82
2023/04/29 09:30:18;;;;;;;8.75;6.15;;;;;;;;;;4961271;28;20094;-82
2023/04/29 09:32:44;;;;;;;11.57;6.35;;;;;;;;;;4963503;28;20058;-80
2023/04/29 09:35:24;;;;;;;10.48;5.20;;;;;;;;;;4960288;28;20022;-80
2023/04/29 09:37:52;;;;;;;8.57;4.70;;;;;;;;;;4964480;28;20027;-81
2023/04/29 09:40:29;;;;;;;9.40;5.40;;;;;;;;;;4950891;28;20034;-80
2023/04/29 09:42:56;;;;;;;9.32;5.30;;;;;;;;;;4946251;28;20478;-79
2023/04/29 09:45:42;;;;;;;13.88;6.18;;;;;;;;;;4964808;28;20110;-81
2023/04/29 09:48:09;;;;;;;7.00;3.72;;;;;;;;;;4966915;28;20027;-80
2023/04/29 09:50:36;;;;;;;11.20;5.75;;;;;;;;;;4959721;28;20034;-82
2023/04/29 09:53:02;;;;;;;8.35;4.40;;;;;;;;;;4961755;28;20789;-82
2023/04/29 09:55:28;;;;;;;10.23;5.75;;;;;;;;;;4964578;28;20027;-80
2023/04/29 09:57:55;;;;;;;7.57;4.15;;;;;;;;;;4963978;28;20066;-83
2023/04/29 10:00:21;;;;;;;8.95;3.63;;;;;;;;;;4952916;28;20476;-81
2023/04/29 10:02:51;;;;;;;7.10;2.67;;;;;;;;;;4950747;28;20085;-81
2023/04/29 10:05:18;;;;;;;9.55;4.65;;;;;;;;;;4964150;28;20031;-81
2023/04/29 10:07:50;;;;;;;8.27;4.97;;;;;;;;;;4969240;28;20465;-82
2023/04/29 10:10:16;;;;;;;8.02;2.65;;;;;;;;;;4964554;28;20047;-80
2023/04/29 10:12:43;;;;;;;9.00;3.63;;;;;;;;;;4940276;28;20122;-81
2023/04/29 10:15:18;;;;;;;8.10;4.95;;;;;;;;;;4958020;28;20023;-81
2023/04/29 10:17:56;;;;;;;8.27;5.15;;;;;;;;;;4961786;28;20031;-79
2023/04/29 10:20:23;;;;;;;7.82;5.55;;;;;;;;;;4961340;28;20023;-80
2023/04/29 10:22:50;;;;;;;6.20;2.97;;;;;;;;;;4945733;28;20034;-80
2023/04/29 10:25:18;;;;;;;5.80;2.67;;;;;;;;;;4941832;28;20027;-80
2023/04/29 10:27:45;;;;;;;7.80;4.03;;;;;;;;;;4957554;28;20055;-80
2023/04/29 10:30:15;;;;;;;10.52;5.95;;;;;;;;;;4961914;28;20034;-81
2023/04/29 10:32:41;;;;;;;6.90;2.95;;;;;;;;;;4961054;28;20134;-81
2023/04/29 10:35:11;;;;;;;7.20;3.70;;;;;;;;;;4960545;28;20045;-80
2023/04/29 10:37:38;;;;;;;13.80;7.70;;;;;;;;;;4963086;28;20155;-80
2023/04/29 10:40:04;;;;;;;8.18;5.70;;;;;;;;;;4963111;28;20066;-81
2023/04/29 10:42:50;;;;;;;10.15;4.75;;;;;;;;;;4964417;28;20066;-80
2023/04/29 10:45:34;;;;;;;8.43;4.60;;;;;;;;;;4963983;28;20473;-81
2023/04/29 10:48:10;;;;;;;6.90;3.55;;;;;;;;;;4957715;28;20449;-80
2023/04/29 10:50:41;;;;;;;8.75;4.63;;;;;;;;;;4957509;28;20030;-79
2023/04/29 10:53:07;;;;;;;10.52;3.90;;;;;;;;;;4959878;28;20031;-78
2023/04/29 10:55:39;;;;;;;8.75;5.07;;;;;;;;;;4952647;28;20470;-80
2023/04/29 10:58:06;;;;;;;8.65;4.20;;;;;;;;;;4962835;28;20066;-80
2023/04/29 11:00:33;;;;;;;8.02;4.07;;;;;;;;;;4968536;28;20481;-80
2023/04/29 11:03:04;;;;;;;5.05;2.97;;;;;;;;;;4956998;28;20031;-79
2023/04/29 11:05:33;;;;;;;9.05;5.72;;;;;;;;;;4962751;28;20573;-82
2023/04/29 11:08:22;;;;;;;8.98;4.38;;;;;;;;;;4941012;28;20034;-83
2023/04/29 11:10:51;;;;;;;7.20;4.00;;;;;;;;;;4963089;28;20038;-80
2023/04/29 11:13:28;;;;;;;3.95;2.72;;;;;;;;;;4964049;28;20504;-80
2023/04/29 11:16:04;;;;;;;7.75;2.78;;;;;;;;;;4946878;28;20031;-81
2023/04/29 11:18:31;;;;;;;6.38;3.55;;;;;;;;;;4973805;28;20873;-80
2023/04/29 11:21:06;;;;;;;7.75;4.63;;;;;;;;;;4957578;28;20034;-81
2023/04/29 11:23:36;;;;;;;5.65;3.03;;;;;;;;;;4967285;28;20030;-80
2023/04/29 11:26:03;;;;;;;6.57;2.50;;;;;;;;;;4965979;28;20093;-80
2023/04/29 11:28:31;;;;;;;7.15;2.53;;;;;;;;;;4967524;28;20466;-82
2023/04/29 11:30:58;;;;;;;6.57;3.75;;;;;;;;;;4955156;28;20051;-81
2023/04/29 11:33:26;;;;;;;6.00;3.08;;;;;;;;;;4967142;28;20534;-81
2023/04/29 11:35:52;;;;;;;6.68;4.10;;;;;;;;;;4959286;28;20375;-80
2023/04/29 11:38:23;;;;;;;6.35;3.60;;;;;;;;;;4967934;28;20042;-81
2023/04/29 11:40:49;;;;;;;6.00;2.70;;;;;;;;;;4968432;28;20035;-81
2023/04/29 11:43:19;;;;;;;8.43;2.53;;;;;;;;;;4968876;28;20054;-82
2023/04/29 11:45:47;;;;;;;5.85;3.08;;;;;;;;;;4969508;28;20493;-81
2023/04/29 11:48:20;;;;;;;6.88;3.13;;;;;;;;;;4953132;28;20031;-82
2023/04/29 11:50:47;;;;;;;6.03;2.72;;;;;;;;;;4966191;28;20193;-82
2023/04/29 11:53:14;;;;;;;5.57;3.17;;;;;;;;;;4962012;28;20513;-84
2023/04/29 11:55:44;;;;;;;5.78;3.53;;;;;;;;;;4974342;28;20038;-79
2023/04/29 11:58:10;;;;;;;6.72;2.90;;;;;;;;;;4971906;28;20078;-82
2023/04/29 12:00:36;;;;;;;8.75;3.75;;;;;;;;;;4948995;28;20045;-82
2023/04/29 12:03:07;;;;;;;6.75;3.78;;;;;;;;;;4960933;28;20111;-82
2023/04/29 12:05:33;;;;;;;6.60;2.80;;;;;;;;;;4963239;28;20050;-80
2023/04/29 12:07:59;;;;;;;7.97;4.40;;;;;;;;;;4968043;28;20027;-81
2023/04/29 12:10:26;;;;;;;6.43;3.30;;;;;;;;;;4966205;28;20039;-81
2023/04/29 12:12:52;;;;;;;5.72;3.05;;;;;;;;;;4968825;28;20049;-81
2023/04/29 12:15:18;;;;;;;4.72;2.30;;;;;;;;;;4956363;28;20026;-81
2023/04/29 12:17:46;;;;;;;4.10;2.10;;;;;;;;;;4961530;28;20054;-81
2023/04/29 12:20:13;;;;;;;7.15;3.13;;;;;;;;;;4963318;28;20066;-81
2023/04/29 12:22:39;;;;;;;6.18;2.60;;;;;;;;;;4960723;28;20073;-84
2023/04/29 12:25:06;;;;;;;5.00;2.45;;;;;;;;;;4969668;28;20481;-79
2023/04/29 12:27:35;;;;;;;8.43;3.83;;;;;;;;;;4974414;28;20033;-82
2023/04/29 12:30:01;;;;;;;6.10;3.35;;;;;;;;;;4970072;28;20089;-80
2023/04/29 12:32:27;;;;;;;8.32;4.47;;;;;;;;;;4948548;28;20040;-81
2023/04/29 12:34:54;;;;;;;5.22;2.00;;;;;;;;;;4965235;28;20060;-81
2023/04/29 12:37:22;;;;;;;6.05;2.58;;;;;;;;;;4965338;28;20114;-82
2023/04/29 12:39:49;;;;;;;10.35;4.47;;;;;;;;;;4967810;28;20551;-82
2023/04/29 12:42:18;;;;;;;6.65;3.58;;;;;;;;;;4957612;28;20066;-85
2023/04/29 12:44:46;;;;;;;5.63;2.97;;;;;;;;;;4973725;28;20034;-80
2023/04/29 12:47:13;;;;;;;4.88;2.38;;;;;;;;;;4965807;28;20494;-82
2023/04/29 12:49:42;;;;;;;3.47;1.77;;;;;;;;;;4956669;28;20031;-82
2023/04/29 12:52:09;;;;;;;7.90;3.97;;;;;;;;;;4969841;28;20489;-83
2023/04/29 12:54:36;;;;;;;6.90;2.58;;;;;;;;;;4965013;28;20034;-83
2023/04/29 12:57:03;;;;;;;6.55;2.88;;;;;;;;;;4966548;28;20027;-82
2023/04/29 12:59:30;;;;;;;5.40;3.30;;;;;;;;;;4954954;28;20035;-82
2023/04/29 13:01:56;;;;;;;5.63;2.28;;;;;;;;;;4952928;28;20030;-80
2023/04/29 13:04:22;;;;;;;5.18;2.00;;;;;;;;;;4963388;28;20046;-82
2023/04/29 13:06:48;;;;;;;3.55;2.00;;;;;;;;;;4971143;28;20030;-82
2023/04/29 13:09:15;;;;;;;6.47;2.85;;;;;;;;;;4963542;28;20042;-83
2023/04/29 13:11:42;;;;;;;6.68;2.50;;;;;;;;;;4950339;28;20050;-83
2023/04/29 13:14:08;;;;;;;6.80;3.30;;;;;;;;;;4973022;28;20061;-80
2023/04/29 13:16:34;;;;;;;5.07;2.63;;;;;;;;;;4967499;28;20046;-80
2023/04/29 13:19:01;;;;;;;5.75;2.60;;;;;;;;;;4972707;28;20031;-83
2023/04/29 13:21:27;;;;;;;7.40;2.72;;;;;;;;;;4967157;28;20026;-82
2023/04/29 13:23:54;;;;;;;8.77;2.92;;;;;;;;;;4969062;28;20107;-82
2023/04/29 13:26:20;;;;;;;4.68;2.50;;;;;;;;;;4972709;28;20863;-80
2023/04/29 13:28:45;;;;;;;6.68;3.15;;;20.80;68.80;;;;;;4974583;28;20066;-80
2023/04/29 13:31:11;;;;;;;7.50;3.03;;;20.90;69.30;;;;;;4958699;28;20097;-80
2023/04/29 13:33:37;;;;;;;4.80;1.80;;;21.30;70.50;;;;;;4961220;28;20051;-80
2023/04/29 13:36:03;;;;;;;6.65;2.67;;;21.70;76.90;;;;;;4940438;28;20011;-80
2023/04/29 13:38:30;;;;;;;5.13;2.20;;;21.90;68.40;;;;;;4967272;28;20444;-80
2023/04/29 13:40:56;;;;;;;5.40;2.20;;;21.90;74.50;;;;;;4939316;28;20027;-80
2023/04/29 13:43:22;;;;;;;3.67;1.60;;;21.90;64.60;;;;;;4969921;28;20189;-79
2023/04/29 13:45:47;;;;;;;2.78;1.50;;;21.80;76.20;;;;;;4958907;28;20027;-80
2023/04/29 13:48:13;;;;;;;5.57;2.20;;;21.50;82.50;;;;;;4971998;28;20045;-78
2023/04/29 13:50:40;;;;;;;5.13;2.15;;;21.20;73.00;;;;;;4966054;28;20084;-80
2023/04/29 13:53:06;;;;;;;3.75;1.95;;;20.90;74.10;;;;;;4972315;28;20031;-80
2023/04/29 13:55:34;;;;;;;6.53;2.08;;;20.70;84.10;;;;;;4959538;28;20015;-80
2023/04/29 13:58:00;;;;;;;4.70;1.90;;;20.50;82.80;;;;;;4969751;28;20496;-80
2023/04/29 14:00:26;;;;;;;4.00;1.77;;;20.20;82.20;;;;;;4969074;28;20489;-77
2023/04/29 14:02:52;;;;;;;2.33;1.20;;;20.00;81.70;;;;;;4962056;28;20027;-78
2023/04/29 14:05:18;;;;;;;6.40;1.83;;;19.70;85.30;;;;;;4966003;28;20027;-79
2023/04/29 14:07:43;;;;;;;2.65;1.40;;;19.60;81.20;;;;;;4961501;28;20038;-81
2023/04/29 14:10:09;;;;;;;2.20;1.20;;;19.40;82.50;;;;;;4954400;28;20042;-77
2023/04/29 14:12:35;;;;;;;3.00;1.50;;;19.30;84.50;;;;;;4966745;28;20030;-77
2023/04/29 14:15:01;;;;;;;3.15;1.60;;;19.20;90.30;;;;;;4951059;28;20086;-79
2023/04/29 14:17:26;;;;;;;5.05;2.35;;;19.10;91.20;;;;;;4972276;28;20066;-79
2023/04/29 14:19:52;;;;;;;3.83;1.38;;;19.10;91.40;;;;;;4957042;28;20067;-79